Time;durP1;ratioP1;P1;durP2;ratioP2;P2;SDS_P1;SDS_P2;PMS_P1;PMS_P2;Temp;Humidity;BMP_temperature;BMP_pressure;BME280_temperature;BME280_humidity;BME280_pressure;Samples;Min_cycle;Max_cycle;Signal;HPM_P1;HPM_P2
2023/07/23 00:00:30;;;;;;;5.93;2.42;;;;;;;20.31;75.46;99755.44;5089807;28;20036;-61
2023/07/23 00:02:56;;;;;;;5.10;2.60;;;;;;;20.28;75.42;99764.63;5088933;28;20069;-62
2023/07/23 00:05:23;;;;;;;4.78;2.42;;;;;;;20.29;74.88;99752.84;5088421;28;20062;-62
2023/07/23 00:07:49;;;;;;;5.30;2.70;;;;;;;20.29;74.67;99752.84;5087712;28;20024;-62
2023/07/23 00:10:15;;;;;;;5.13;2.63;;;;;;;20.30;73.61;99757.28;5088577;28;20078;-62
2023/07/23 00:12:40;;;;;;;5.68;2.70;;;;;;;20.30;73.73;99754.56;5088687;28;20020;-62
2023/07/23 00:15:06;;;;;;;4.95;2.25;;;;;;;20.31;74.00;99753.56;5086765;28;20493;-62
2023/07/23 00:17:31;;;;;;;4.47;2.40;;;;;;;20.33;74.16;99751.63;5088262;28;20034;-61
2023/07/23 00:19:57;;;;;;;4.03;2.42;;;;;;;20.30;74.41;99751.00;5081579;28;20031;-61
2023/07/23 00:22:22;;;;;;;5.40;2.85;;;;;;;20.27;74.65;99754.81;5088198;28;20229;-62
2023/07/23 00:24:48;;;;;;;5.78;2.55;;;;;;;20.24;73.97;99752.34;5087869;28;20028;-62
2023/07/23 00:27:13;;;;;;;5.30;2.40;;;;;;;20.28;72.91;99752.97;5088408;28;20024;-61
2023/07/23 00:29:42;;;;;;;5.25;2.63;;;;;;;20.29;72.84;99750.16;5087493;28;20080;-62
2023/07/23 00:32:08;;;;;;;4.25;1.90;;;;;;;20.31;72.78;99753.56;5088685;28;20024;-62
2023/07/23 00:34:33;;;;;;;6.25;2.40;;;;;;;20.31;73.31;99753.56;5088569;28;20805;-62
2023/07/23 00:36:59;;;;;;;5.38;2.25;;;;;;;20.29;73.63;99755.56;5089006;28;20028;-61
2023/07/23 00:39:24;;;;;;;5.43;2.58;;;;;;;20.26;73.72;99749.53;5089369;28;20028;-61
2023/07/23 00:41:50;;;;;;;4.78;2.95;;;;;;;20.25;73.04;99750.47;5088430;28;20028;-62
2023/07/23 00:44:16;;;;;;;5.70;2.08;;;;;;;20.25;72.23;99751.34;5088907;28;20036;-62
2023/07/23 00:46:42;;;;;;;4.53;2.17;;;;;;;20.29;72.59;99744.75;5088200;28;20165;-62
2023/07/23 00:49:08;;;;;;;4.15;1.95;;;;;;;20.34;72.10;99744.41;5088810;28;20035;-61
2023/07/23 00:51:35;;;;;;;3.97;1.70;;;;;;;20.36;72.28;99748.69;5087845;28;20035;-61
2023/07/23 00:54:01;;;;;;;4.15;2.40;;;;;;;20.31;72.71;99731.97;5086954;28;20024;-62
2023/07/23 00:56:27;;;;;;;4.43;2.40;;;;;;;20.35;71.86;99743.41;5086826;28;20036;-62
2023/07/23 00:58:52;;;;;;;6.35;1.92;;;;;;;20.30;71.95;99729.38;5085790;28;20075;-62
2023/07/23 01:01:18;;;;;;;8.15;2.55;;;;;;;20.31;72.38;99737.38;5087775;28;20360;-62
2023/07/23 01:03:44;;;;;;;5.68;2.78;;;;;;;20.29;73.06;99744.75;5072214;28;20739;-62
2023/07/23 01:06:11;;;;;;;4.38;2.35;;;;;;;20.25;72.61;99736.97;5084497;28;20043;-62
2023/07/23 01:08:39;;;;;;;5.40;2.47;;;;;;;20.18;73.36;99720.38;5088469;28;20499;-62
2023/07/23 01:11:05;;;;;;;3.88;2.00;;;;;;;20.21;73.21;99735.50;5087245;28;20255;-62
2023/07/23 01:13:31;;;;;;;3.88;2.08;;;;;;;20.16;72.76;99725.06;5076501;28;20103;-62
2023/07/23 01:15:56;;;;;;;8.13;2.83;;;;;;;20.16;72.88;99726.91;5083975;28;20027;-62
2023/07/23 01:18:23;;;;;;;4.60;2.08;;;;;;;20.13;72.71;99722.53;5085226;28;20038;-62
2023/07/23 01:20:49;;;;;;;6.07;2.50;;;;;;;20.13;72.87;99716.28;5087184;28;20127;-62
2023/07/23 01:23:14;;;;;;;5.22;2.05;;;;;;;20.13;73.04;99721.69;5086771;28;20103;-62
2023/07/23 01:25:40;;;;;;;5.35;2.75;;;;;;;20.10;72.74;99721.94;5087676;28;20076;-62
2023/07/23 01:28:07;;;;;;;4.45;2.33;;;;;;;20.13;72.92;99719.00;5087872;28;20407;-62
2023/07/23 01:30:33;;;;;;;4.63;2.03;;;;;;;20.09;73.11;99718.38;5087995;28;20035;-62
2023/07/23 01:32:59;;;;;;;4.47;1.90;;;;;;;20.12;72.95;99719.97;5088429;28;20031;-61
2023/07/23 01:35:25;;;;;;;4.70;1.90;;;;;;;20.10;72.55;99733.56;5088531;28;20084;-62
2023/07/23 01:37:51;;;;;;;4.85;2.58;;;;;;;20.09;72.85;99721.06;5086711;28;20036;-62
2023/07/23 01:40:17;;;;;;;7.95;2.40;;;;;;;20.09;73.22;99721.06;5084021;28;20054;-62
2023/07/23 01:42:44;;;;;;;2.85;1.63;;;;;;;20.09;73.05;99718.38;5088469;28;20035;-62
2023/07/23 01:45:10;;;;;;;3.80;1.83;;;;;;;20.10;73.03;99722.78;5088322;28;20507;-61
2023/07/23 01:47:35;;;;;;;4.32;2.25;;;;;;;20.14;73.11;99723.41;5087525;28;20032;-62
2023/07/23 01:50:01;;;;;;;5.13;1.98;;;;;;;20.16;73.20;99722.38;5088189;28;20039;-62
2023/07/23 01:52:26;;;;;;;10.75;2.33;;;;;;;20.18;72.75;99723.09;5087568;28;21117;-62
2023/07/23 01:54:52;;;;;;;5.80;2.20;;;;;;;20.19;73.03;99719.41;5087334;28;20024;-62
2023/07/23 01:57:17;;;;;;;4.63;1.80;;;;;;;20.18;72.43;99720.38;5087784;28;20166;-62
2023/07/23 01:59:42;;;;;;;6.88;1.83;;;;;;;20.17;72.17;99726.78;5085985;28;20032;-62
2023/07/23 02:02:09;;;;;;;4.38;2.30;;;;;;;20.16;72.68;99722.38;5086977;28;20016;-62
2023/07/23 02:04:35;;;;;;;5.35;2.10;;;;;;;20.12;72.60;99714.56;5086413;28;20031;-62
2023/07/23 02:07:00;;;;;;;4.60;2.10;;;;;;;20.14;72.50;99728.81;5066357;28;20508;-62
2023/07/23 02:09:26;;;;;;;4.65;2.05;;;;;;;20.08;72.47;99722.03;5065977;28;20203;-62
2023/07/23 02:11:51;;;;;;;7.10;1.80;;;;;;;20.08;72.06;99719.31;5065137;28;20020;-62
2023/07/23 02:14:17;;;;;;;3.80;1.95;;;;;;;20.03;72.23;99710.72;5064023;28;20028;-62
2023/07/23 02:16:42;;;;;;;4.82;2.17;;;;;;;20.08;71.90;99726.59;5065891;28;20024;-62
2023/07/23 02:19:08;;;;;;;3.70;2.00;;;;;;;20.08;72.17;99727.44;5065501;28;20060;-62
2023/07/23 02:21:34;;;;;;;4.78;2.03;;;;;;;20.08;73.00;99719.31;5062704;28;20038;-61
2023/07/23 02:23:59;;;;;;;3.70;1.85;;;;;;;20.07;72.25;99727.53;5065048;28;20067;-62
2023/07/23 02:26:25;;;;;;;4.10;2.42;;;;;;;20.00;71.95;99719.03;5067007;28;20097;-62
2023/07/23 02:28:50;;;;;;;4.47;2.03;;;;;;;20.03;72.42;99721.50;5067723;28;20111;-62
2023/07/23 02:31:15;;;;;;;4.40;2.15;;;;;;;20.05;72.04;99730.38;5070546;28;20016;-61
2023/07/23 02:33:41;;;;;;;4.05;2.20;;;;;;;19.98;71.88;99723.72;5071510;28;20433;-61
2023/07/23 02:36:06;;;;;;;5.05;1.95;;;;;;;19.97;72.67;99724.69;5070652;28;20086;-62
2023/07/23 02:38:32;;;;;;;4.60;2.00;;;;;;;19.93;72.61;99720.50;5071028;28;20024;-62
2023/07/23 02:40:58;;;;;;;4.45;2.30;;;;;;;19.97;72.56;99730.09;5069712;28;20099;-61
2023/07/23 02:43:24;;;;;;;4.70;1.95;;;;;;;19.92;72.56;99724.16;5071132;28;20032;-62
2023/07/23 02:45:51;;;;;;;6.75;2.30;;;;;;;19.87;72.34;99725.50;5070548;28;20116;-61
2023/07/23 02:48:16;;;;;;;4.05;1.98;;;;;;;19.85;72.55;99728.28;5070391;28;20037;-62
2023/07/23 02:50:41;;;;;;;5.00;2.22;;;;;;;19.86;72.26;99730.03;5068658;28;20043;-62
2023/07/23 02:53:07;;;;;;;4.95;2.33;;;;;;;19.86;71.98;99719.25;5070286;28;20021;-62
2023/07/23 02:55:33;;;;;;;4.13;2.15;;;;;;;19.87;72.45;99729.06;5069012;28;20034;-62
2023/07/23 02:58:00;;;;;;;5.00;2.05;;;;;;;19.88;72.12;99722.69;5069602;28;20028;-62
2023/07/23 03:00:28;;;;;;;6.22;2.05;;;;;;;19.80;72.06;99725.13;5069349;28;20033;-62
2023/07/23 03:02:54;;;;;;;5.75;1.83;;;;;;;19.81;72.08;99726.81;5068524;28;20031;-62
2023/07/23 03:05:20;;;;;;;3.83;1.80;;;;;;;19.77;72.32;99714.50;5072061;28;20078;-62
2023/07/23 03:07:46;;;;;;;4.15;1.90;;;;;;;19.83;72.45;99730.28;5084147;28;20036;-62
2023/07/23 03:10:11;;;;;;;5.25;2.17;;;;;;;19.76;72.78;99734.41;5089703;28;20055;-62
2023/07/23 03:12:37;;;;;;;5.30;3.17;;;;;;;19.70;73.21;99726.78;5089847;28;20102;-62
2023/07/23 03:15:02;;;;;;;6.13;2.13;;;;;;;19.69;73.51;99738.53;5088831;28;20583;-61
2023/07/23 03:17:28;;;;;;;7.90;2.33;;;;;;;19.67;73.37;99726.13;5071837;28;20036;-61
2023/07/23 03:19:53;;;;;;;10.02;2.50;;;;;;;19.63;73.51;99739.00;5075164;28;20039;-62
2023/07/23 03:22:20;;;;;;;13.75;2.70;;;;;;;19.61;73.27;99735.53;5090944;28;20229;-61
2023/07/23 03:24:45;;;;;;;5.57;2.33;;;;;;;19.59;73.46;99734.78;5089725;28;20032;-62
2023/07/23 03:27:11;;;;;;;6.32;2.58;;;;;;;19.59;73.78;99738.34;5090427;28;20039;-62
2023/07/23 03:29:36;;;;;;;4.32;2.22;;;;;;;19.59;73.42;99735.66;5086271;28;20105;-61
2023/07/23 03:32:02;;;;;;;5.05;2.30;;;;;;;19.56;73.68;99743.97;5077698;28;20032;-62
2023/07/23 03:34:28;;;;;;;6.10;2.45;;;;;;;19.54;73.67;99745.03;5072720;28;20098;-61
2023/07/23 03:36:53;;;;;;;4.85;2.17;;;;;;;19.52;73.94;99742.47;5070365;28;20111;-62
2023/07/23 03:39:19;;;;;;;5.03;2.00;;;;;;;19.48;74.15;99734.72;5087031;28;20034;-61
2023/07/23 03:41:45;;;;;;;4.75;1.95;;;;;;;19.44;74.32;99742.16;5089620;28;20543;-61
2023/07/23 03:44:11;;;;;;;3.55;1.88;;;;;;;19.45;74.56;99752.00;5089244;28;20043;-61
2023/07/23 03:46:45;;;;;;;7.10;2.67;;;;;;;19.42;73.88;99745.97;5089708;28;20024;-62
2023/07/23 03:49:11;;;;;;;4.55;1.90;;;;;;;19.39;74.68;99749.72;5088507;28;20653;-61
2023/07/23 03:51:36;;;;;;;4.55;2.08;;;;;;;19.34;75.10;99748.38;5087433;28;20059;-62
2023/07/23 03:54:02;;;;;;;4.65;2.05;;;;;;;19.27;75.08;99753.31;5087374;28;20028;-62
2023/07/23 03:56:27;;;;;;;5.15;1.90;;;;;;;19.24;75.27;99753.50;5086181;28;20039;-62
2023/07/23 03:58:53;;;;;;;5.22;2.10;;;;;;;19.19;75.74;99749.44;5085382;28;20035;-61
2023/07/23 04:01:18;;;;;;;6.78;2.05;;;;;;;19.19;76.35;99744.88;5083124;28;20669;-61
2023/07/23 04:03:44;;;;;;;6.82;2.53;;;;;;;19.17;75.89;99757.63;5084467;28;20039;-62
2023/07/23 04:06:10;;;;;;;4.70;2.05;;;;;;;19.16;76.45;99749.66;5085318;28;20063;-61
2023/07/23 04:08:35;;;;;;;4.20;2.08;;;;;;;19.16;76.51;99755.06;5085953;28;20900;-62
2023/07/23 04:11:01;;;;;;;4.32;1.92;;;;;;;19.15;76.14;99753.31;5070449;28;20592;-61
2023/07/23 04:13:26;;;;;;;5.38;2.10;;;;;;;19.16;76.17;99755.88;5068829;28;20036;-62
2023/07/23 04:15:51;;;;;;;5.50;2.25;;;;;;;19.16;75.67;99761.28;5087518;28;20544;-62
2023/07/23 04:18:18;;;;;;;10.88;2.30;;;;;;;19.16;76.15;99763.97;5085539;28;20036;-62
2023/07/23 04:20:43;;;;;;;4.85;2.17;;;;;;;19.14;75.79;99762.38;5086456;28;20020;-61
2023/07/23 04:23:09;;;;;;;6.05;2.00;;;;;;;19.14;76.56;99767.78;5087192;28;20024;-62
2023/07/23 04:25:34;;;;;;;5.93;1.70;;;;;;;19.14;76.33;99773.16;5088990;28;20035;-62
2023/07/23 04:28:00;;;;;;;5.63;2.47;;;;;;;19.11;76.24;99773.38;5088640;28;20036;-61
2023/07/23 04:30:27;;;;;;;6.60;2.88;;;;;;;19.13;76.94;99766.91;5081048;28;20154;-61
2023/07/23 04:32:53;;;;;;;7.03;2.60;;;;;;;19.15;76.60;99772.19;5084193;28;20024;-61
2023/07/23 04:35:19;;;;;;;6.28;2.20;;;;;;;19.17;76.82;99764.84;5074904;28;20039;-61
2023/07/23 04:37:44;;;;;;;8.07;2.22;;;;;;;19.16;77.10;99771.22;5072875;28;20747;-61
2023/07/23 04:40:10;;;;;;;6.55;2.45;;;;;;;19.17;76.88;99775.63;5088746;28;20153;-61
2023/07/23 04:42:35;;;;;;;4.60;2.10;;;;;;;19.19;76.94;99777.22;5088038;28;20168;-62
2023/07/23 04:45:00;;;;;;;5.55;2.08;;;;;;;19.22;77.19;99776.16;5068678;28;20147;-62
2023/07/23 04:47:26;;;;;;;5.20;2.38;;;;;;;19.31;77.01;99772.81;5087540;28;20484;-62
2023/07/23 04:49:51;;;;;;;3.67;1.92;;;;;;;19.37;76.10;99770.56;5082848;28;20136;-62
2023/07/23 04:52:18;;;;;;;4.43;2.35;;;;;;;19.46;76.06;99766.34;5074749;28;20024;-62
2023/07/23 04:54:44;;;;;;;3.88;2.22;;;;;;;19.57;76.13;99769.97;5085576;28;20068;-62
2023/07/23 04:57:09;;;;;;;4.65;2.30;;;;;;;19.71;74.93;99770.78;5086241;28;20073;-62
2023/07/23 04:59:34;;;;;;;4.93;2.70;;;;;;;19.80;74.89;99776.41;5081700;28;20024;-62
2023/07/23 05:02:00;;;;;;;5.45;2.35;;;;;;;19.90;74.08;99780.09;5067113;28;20032;-62
2023/07/23 05:04:26;;;;;;;5.78;2.80;;;;;;;19.99;74.48;99784.84;5086085;28;20046;-61
2023/07/23 05:06:51;;;;;;;7.18;2.38;;;;;;;20.05;74.37;99773.56;5066596;28;20098;-62
2023/07/23 05:09:17;;;;;;;5.03;2.22;;;;;;;20.09;73.75;99775.06;5083303;28;20024;-62
2023/07/23 05:11:42;;;;;;;4.03;2.10;;;;;;;20.11;74.16;99767.72;5084100;28;20031;-61
2023/07/23 05:14:08;;;;;;;4.63;1.80;;;;;;;20.21;74.72;99767.91;5086952;28;20043;-62
2023/07/23 05:16:33;;;;;;;6.22;2.00;;;;;;;20.25;73.63;99772.97;5087227;28;20104;-62
2023/07/23 05:18:58;;;;;;;4.03;1.80;;;;;;;20.32;72.91;99773.38;5087893;28;20115;-62
2023/07/23 05:21:24;;;;;;;3.88;1.95;;;;;;;20.37;71.99;99780.16;5086831;28;20323;-62
2023/07/23 05:23:49;;;;;;;4.80;2.00;;;;;;;20.43;72.01;99779.66;5087971;28;20028;-61
2023/07/23 05:26:15;;;;;;;4.95;2.38;;;;;;;20.50;71.49;99780.94;5088092;28;20024;-61
2023/07/23 05:28:40;;;;;;;5.45;1.80;;;;;;;20.55;70.68;99772.47;5086941;28;20051;-61
2023/07/23 05:31:05;;;;;;;10.50;2.10;;;;;;;20.55;70.78;99778.72;5072621;28;20082;-62
2023/07/23 05:33:31;;;;;;;3.65;1.80;;;;;;;20.59;70.29;99782.91;5067846;28;20035;-62
2023/07/23 05:35:56;;;;;;;5.88;2.63;;;;;;;20.65;70.14;99777.03;5067635;28;20032;-62
2023/07/23 05:38:22;;;;;;;9.45;2.45;;;;;;;20.77;69.83;99780.63;5082766;28;20035;-62
2023/07/23 05:40:55;;;;;;;5.15;2.10;;;;;;;20.87;69.38;99782.47;5087214;28;20437;-62
2023/07/23 05:43:20;;;;;;;4.68;2.67;;;;;;;20.94;68.66;99786.44;5087031;28;20839;-62
2023/07/23 05:45:46;;;;;;;5.43;2.10;;;;;;;20.99;68.50;99788.81;5086650;28;20028;-62
2023/07/23 05:48:11;;;;;;;4.32;1.83;;;;;;;21.04;69.02;99783.06;5084798;28;20212;-61
2023/07/23 05:50:36;;;;;;;4.28;2.55;;;;;;;21.07;68.96;99785.50;5086001;28;20111;-62
2023/07/23 05:53:03;;;;;;;7.97;2.13;;;;;;;21.02;69.15;99788.56;5073837;28;20133;-61
2023/07/23 05:55:28;;;;;;;5.65;1.95;;;;;;;20.99;68.97;99793.38;5085410;28;20035;-62
2023/07/23 05:57:54;;;;;;;3.80;2.00;;;;;;;20.95;68.92;99787.31;5085518;28;20048;-62
2023/07/23 06:00:19;;;;;;;4.90;1.90;;;;;;;20.87;68.90;99785.19;5085294;28;20032;-62
2023/07/23 06:02:45;;;;;;;5.55;2.10;;;;;;;20.84;70.06;99789.97;5086425;28;20081;-62
2023/07/23 06:05:10;;;;;;;3.97;2.17;;;;;;;20.79;70.14;99790.34;5088583;28;20813;-62
2023/07/23 06:07:35;;;;;;;3.72;1.75;;;;;;;20.76;70.53;99782.47;5090510;28;20026;-62
2023/07/23 06:10:01;;;;;;;3.00;1.50;;;;;;;20.73;71.21;99788.13;5090443;28;20115;-62
2023/07/23 06:12:27;;;;;;;5.80;1.70;;;;;;;20.72;70.80;99791.78;5085438;28;20473;-62
2023/07/23 06:14:52;;;;;;;3.85;2.10;;;;;;;20.74;71.27;99795.25;5083652;28;20465;-62
2023/07/23 06:17:18;;;;;;;5.15;2.47;;;;;;;20.74;70.04;99783.59;5071018;28;20024;-62
2023/07/23 06:19:43;;;;;;;5.00;2.50;;;;;;;20.80;70.15;99773.16;5081914;28;20028;-62
2023/07/23 06:22:09;;;;;;;3.75;1.90;;;;;;;20.97;69.02;99790.78;5091001;28;20562;-62
2023/07/23 06:24:35;;;;;;;3.10;1.80;;;;;;;21.11;68.27;99776.16;5090812;28;20041;-62
2023/07/23 06:27:00;;;;;;;4.50;2.47;;;;;;;21.36;67.65;99784.03;5091319;28;20051;-62
2023/07/23 06:29:26;;;;;;;3.55;1.80;;;;;;;21.55;66.28;99787.84;5090435;28;20024;-62
2023/07/23 06:31:52;;;;;;;6.60;2.17;;;;;;;21.83;65.21;99778.34;5076060;28;20040;-62
2023/07/23 06:34:17;;;;;;;4.28;1.90;;;;;;;21.96;65.38;99787.19;5079782;28;20024;-62
2023/07/23 06:36:45;;;;;;;3.30;1.80;;;;;;;22.01;64.62;99791.25;5089418;28;20035;-62
2023/07/23 06:39:10;;;;;;;3.38;1.83;;;;;;;22.04;64.83;99790.16;5090736;28;20028;-62
2023/07/23 06:41:36;;;;;;;3.85;1.50;;;;;;;22.00;64.09;99788.66;5088690;28;20125;-62
2023/07/23 06:44:01;;;;;;;4.53;1.92;;;;;;;22.10;64.03;99786.91;5088746;28;20507;-62
2023/07/23 06:46:27;;;;;;;5.05;2.00;;;;;;;22.17;63.02;99790.84;5077317;28;20388;-62
2023/07/23 06:48:52;;;;;;;5.10;1.92;;;;;;;22.35;63.44;99791.13;5082360;28;20111;-62
2023/07/23 06:51:17;;;;;;;4.38;2.20;;;;;;;22.43;62.15;99792.22;5088872;28;20031;-61
2023/07/23 06:53:43;;;;;;;4.40;1.98;;;;;;;22.36;61.73;99780.16;5089005;28;20145;-62
2023/07/23 06:56:09;;;;;;;6.40;2.08;;;;;;;22.38;62.42;99789.03;5089411;28;20028;-62
2023/07/23 06:58:36;;;;;;;4.38;1.65;;;;;;;22.47;62.74;99790.94;5086789;28;20047;-62
2023/07/23 07:01:03;;;;;;;6.18;1.77;;;;;;;22.76;61.80;99786.66;5085793;28;20030;-62
2023/07/23 07:03:29;;;;;;;3.00;1.52;;;;;;;23.10;59.42;99781.84;5089143;28;20055;-62
2023/07/23 07:05:54;;;;;;;2.63;1.50;;;;;;;23.51;59.29;99780.97;5083374;28;20444;-62
2023/07/23 07:08:20;;;;;;;4.20;1.60;;;;;;;23.86;57.55;99786.78;5069648;28;20107;-62
2023/07/23 07:10:46;;;;;;;5.32;1.33;;;;;;;24.17;56.95;99783.00;5077139;28;20038;-62
2023/07/23 07:13:12;;;;;;;3.38;1.60;;;;;;;24.49;55.52;99780.91;5087830;28;20024;-62
2023/07/23 07:15:40;;;;;;;2.63;1.50;;;;;;;24.67;54.41;99776.44;5076499;28;20039;-63
2023/07/23 07:18:05;;;;;;;4.13;1.70;;;;;;;24.96;54.23;99773.72;5069877;28;20362;-62
2023/07/23 07:20:31;;;;;;;3.42;1.75;;;;;;;25.22;52.55;99778.34;5076391;28;20031;-62
2023/07/23 07:22:56;;;;;;;3.90;1.67;;;;;;;25.56;51.87;99771.41;5070026;28;20036;-62
2023/07/23 07:25:21;;;;;;;3.35;1.35;;;;;;;25.94;50.40;99773.94;5073545;28;20016;-62
2023/07/23 07:27:47;;;;;;;3.40;1.30;;;;;;;26.16;49.14;99777.25;5090176;28;20457;-62
2023/07/23 07:30:13;;;;;;;2.75;1.50;;;;;;;26.22;48.67;99773.91;5080320;28;20120;-61
2023/07/23 07:32:39;;;;;;;3.28;1.23;;;;;;;26.62;47.82;99769.69;5069449;28;20551;-62
2023/07/23 07:35:05;;;;;;;2.65;1.27;;;;;;;26.73;47.78;99769.50;5075295;28;20028;-62
2023/07/23 07:37:30;;;;;;;2.30;1.27;;;;;;;27.00;46.88;99768.50;5089028;28;20047;-61
2023/07/23 07:39:56;;;;;;;2.55;1.40;;;;;;;27.29;45.98;99760.88;5080273;28;20032;-61
2023/07/23 07:42:21;;;;;;;2.28;1.33;;;;;;;27.54;45.36;99761.84;5084184;28;20460;-63
2023/07/23 07:44:46;;;;;;;3.38;1.63;;;;;;;27.78;44.76;99764.69;5074695;28;20039;-64
2023/07/23 07:47:12;;;;;;;3.60;1.15;;;;;;;28.02;43.87;99762.91;5074595;28;20032;-65
2023/07/23 07:49:38;;;;;;;3.08;1.10;;;;;;;28.04;43.51;99760.03;5068186;28;20086;-64
2023/07/23 07:52:04;;;;;;;3.65;1.42;;;;;;;28.15;43.22;99759.72;5073832;28;20520;-64
2023/07/23 07:54:29;;;;;;;3.78;1.42;;;;;;;28.27;44.14;99763.84;5069872;28;20031;-64
2023/07/23 07:56:55;;;;;;;2.42;1.10;;;;;;;28.50;42.71;99762.19;5067595;28;20476;-65
2023/07/23 07:59:21;;;;;;;3.30;1.40;;;;;;;28.76;42.71;99756.56;5077215;28;20484;-65
2023/07/23 08:01:46;;;;;;;2.90;1.25;;;;;;;29.13;41.08;99751.41;5079422;28;20433;-65
2023/07/23 08:04:12;;;;;;;2.30;1.20;;;;;;;29.43;41.20;99761.63;5072716;28;20443;-66
2023/07/23 08:06:38;;;;;;;1.88;0.93;;;;;;;29.53;39.42;99762.28;5076853;28;20051;-66
2023/07/23 08:09:04;;;;;;;2.05;1.05;;;;;;;29.29;40.36;99754.97;5088380;28;20031;-65
2023/07/23 08:11:30;;;;;;;5.18;1.20;;;;;;;28.75;40.65;99755.69;5088913;28;20027;-65
2023/07/23 08:13:57;;;;;;;2.45;1.00;;;;;;;28.23;42.40;99744.19;5088259;28;20034;-65
2023/07/23 08:16:22;;;;;;;2.58;1.02;;;;;;;28.17;42.24;99753.03;5085556;28;20035;-65
2023/07/23 08:18:48;;;;;;;3.05;1.13;;;;;;;28.17;41.57;99744.84;5088727;28;20024;-66
2023/07/23 08:21:14;;;;;;;2.95;1.00;;;;;;;28.50;42.41;99747.66;5088303;28;20488;-65
2023/07/23 08:23:40;;;;;;;2.08;1.10;;;;;;;28.91;41.42;99754.84;5088124;28;20024;-65
2023/07/23 08:26:07;;;;;;;2.10;1.05;;;;;;;29.23;41.09;99749.31;5087103;28;20035;-65
2023/07/23 08:28:44;;;;;;;2.40;1.15;;;;;;;29.44;40.00;99746.91;5087988;28;20028;-66
2023/07/23 08:31:09;;;;;;;7.93;1.95;;;;;;;29.64;40.01;99739.94;5087340;28;20042;-65
2023/07/23 08:33:36;;;;;;;2.63;1.38;;;;;;;29.43;40.17;99747.91;5085992;28;20243;-66
2023/07/23 08:36:01;;;;;;;2.17;1.08;;;;;;;29.08;40.83;99743.72;5085978;28;20140;-66
2023/07/23 08:38:28;;;;;;;3.25;1.40;;;;;;;29.08;42.02;99751.06;5085897;28;20073;-65
2023/07/23 08:41:00;;;;;;;2.92;0.98;;;;;;;29.72;42.17;99744.59;5085018;28;20028;-66
2023/07/23 08:43:59;;;;;;;3.58;1.30;;;;;;;30.41;39.80;99739.91;5085411;28;20082;-66
2023/07/23 08:46:26;;;;;;;3.05;1.30;;;;;;;30.74;38.88;99741.34;5078785;28;20055;-66
2023/07/23 08:48:55;;;;;;;2.22;1.15;;;;;;;30.97;38.54;99743.25;5078115;28;20622;-65
2023/07/23 08:51:23;;;;;;;3.25;1.00;;;;;;;31.04;37.41;99738.72;5082374;28;20027;-66
2023/07/23 08:53:50;;;;;;;2.08;1.02;;;;;;;31.26;37.19;99738.66;5082938;28;20043;-66
2023/07/23 08:56:17;;;;;;;4.03;0.90;;;;;;;31.49;37.32;99736.72;5079048;28;20071;-64
2023/07/23 08:58:43;;;;;;;2.92;1.08;;;;;;;31.66;37.08;99753.88;5070391;28;20035;-65
2023/07/23 09:01:11;;;;;;;3.13;1.30;;;;;;;31.71;37.07;99746.72;5075151;28;20036;-65
2023/07/23 09:03:36;;;;;;;2.65;1.10;;;;;;;31.71;36.90;99743.97;5084309;28;20028;-65
2023/07/23 09:06:03;;;;;;;3.28;1.17;;;;;;;31.46;37.54;99749.97;5086500;28;20052;-65
2023/07/23 09:08:28;;;;;;;2.42;1.25;;;;;;;31.15;37.94;99757.50;5085226;28;20060;-65
2023/07/23 09:10:54;;;;;;;5.93;2.35;;;;;;;30.72;39.20;99754.44;5082506;28;20058;-65
2023/07/23 09:13:19;;;;;;;2.67;1.30;;;;;;;31.04;38.71;99749.72;5074661;28;20488;-66
2023/07/23 09:15:53;;;;;;;3.00;1.10;;;;;;;31.75;37.32;99747.19;5067361;28;20082;-66
2023/07/23 09:18:19;;;;;;;2.75;1.17;;;;;;;32.11;37.56;99739.88;5074833;28;20409;-65
2023/07/23 09:20:48;;;;;;;3.38;1.40;;;;;;;32.14;36.86;99745.00;5075555;28;20028;-65
2023/07/23 09:23:14;;;;;;;3.92;1.45;;;;;;;32.22;36.45;99746.78;5067301;28;20100;-66
2023/07/23 09:25:41;;;;;;;5.60;1.45;;;;;;;31.75;37.58;99749.97;5077392;28;20119;-66
2023/07/23 09:28:07;;;;;;;3.13;1.33;;;;;;;31.74;37.73;99742.75;5066751;28;20032;-65
2023/07/23 09:30:32;;;;;;;3.13;1.40;;;;;;;31.86;37.74;99744.84;5083648;28;20031;-65
2023/07/23 09:33:00;;;;;;;3.17;1.40;;;;;;;31.91;37.46;99744.31;5070219;28;20434;-66
2023/07/23 09:35:30;;;;;;;2.20;1.20;;;;;;;32.11;38.69;99734.34;5077972;28;20132;-66
2023/07/23 09:37:59;;;;;;;4.78;1.40;;;;;;;32.22;37.45;99741.28;5073971;28;20032;-65
2023/07/23 09:40:38;;;;;;;3.15;1.60;;;;;;;32.59;37.87;99730.03;5082167;28;20485;-66
2023/07/23 09:43:04;;;;;;;3.83;1.70;;;;;;;32.69;36.94;99733.31;5079040;28;20039;-66
2023/07/23 09:45:37;;;;;;;3.30;1.38;;;;;;;32.35;36.20;99735.91;5074558;28;20036;-66
2023/07/23 09:48:03;;;;;;;3.08;1.50;;;;;;;32.41;37.86;99730.50;5066658;28;20048;-65
2023/07/23 09:50:29;;;;;;;5.43;1.63;;;;;;;32.43;36.29;99733.91;5073218;28;20081;-65
2023/07/23 09:52:56;;;;;;;2.53;1.40;;;;;;;32.68;36.35;99726.97;5067869;28;20025;-66
2023/07/23 09:55:22;;;;;;;3.67;1.67;;;;;;;32.30;37.26;99733.75;5068057;28;20032;-65
2023/07/23 09:57:50;;;;;;;2.90;1.13;;;;;;;32.04;36.92;99723.28;5069288;28;20040;-66
2023/07/23 10:00:17;;;;;;;2.63;1.20;;;;;;;31.91;38.51;99716.78;5066661;28;20032;-65
2023/07/23 10:02:45;;;;;;;1.55;0.90;;;;;;;32.21;37.80;99726.63;5070310;28;20036;-66
2023/07/23 10:05:12;;;;;;;2.58;1.33;;;;;;;32.06;36.97;99721.19;5066575;28;20105;-65
2023/07/23 10:07:39;;;;;;;2.22;1.20;;;;;;;32.13;37.10;99718.50;5067521;28;20043;-65
2023/07/23 10:10:08;;;;;;;2.95;1.35;;;;;;;32.79;36.68;99723.66;5070848;28;20396;-65
2023/07/23 10:12:34;;;;;;;3.78;1.77;;;;;;;33.36;35.91;99713.31;5067478;28;20029;-66
2023/07/23 10:14:59;;;;;;;16.45;8.50;;;;;;;33.28;35.30;99723.63;5068152;28;20026;-65
2023/07/23 10:17:28;;;;;;;2.75;1.50;;;;;;;33.12;34.56;99710.16;5070912;28;20029;-65
2023/07/23 10:19:55;;;;;;;1.95;1.00;;;;;;;32.74;35.19;99715.13;5078147;28;20201;-65
2023/07/23 10:22:23;;;;;;;2.30;1.05;;;;;;;32.94;35.80;99716.19;5072114;28;20677;-65
2023/07/23 10:24:52;;;;;;;3.13;1.48;;;;;;;32.84;35.75;99712.03;5076794;28;20527;-66
2023/07/23 10:27:18;;;;;;;3.85;1.45;;;;;;;32.93;35.70;99720.00;5080317;28;20054;-66
2023/07/23 10:30:19;;;;;;;2.63;1.83;;;;;;;32.97;35.85;99704.78;5051331;28;20061;-65
2023/07/23 10:32:47;;;;;;;5.05;2.40;;;;;;;33.08;36.24;99695.94;5064231;28;20025;-65
2023/07/23 10:35:12;;;;;;;5.03;2.20;;;;;;;33.16;36.04;99681.16;5073211;28;20507;-65
2023/07/23 10:37:38;;;;;;;2.65;1.38;;;;;;;32.94;35.42;99682.25;5075411;28;20032;-65
2023/07/23 10:40:04;;;;;;;3.15;1.48;;;;;;;32.72;36.18;99697.94;5067052;28;20024;-64
2023/07/23 10:42:41;;;;;;;2.97;1.45;;;;;;;32.25;35.48;99691.31;5067840;28;20071;-65
2023/07/23 10:45:15;;;;;;;2.38;1.20;;;;;;;32.14;36.39;99687.19;5078500;28;20113;-65
2023/07/23 10:47:49;;;;;;;3.50;1.30;;;;;;;31.81;36.56;99681.25;5070878;28;20039;-66
2023/07/23 10:50:18;;;;;;;4.68;1.55;;;;;;;32.26;37.27;99674.59;5072760;28;20028;-66
2023/07/23 10:52:44;;;;;;;2.60;1.58;;;;;;;32.53;37.01;99662.84;5077594;28;20027;-66
2023/07/23 10:55:10;;;;;;;2.30;1.27;;;;;;;32.94;35.27;99676.75;5075029;28;20039;-66
2023/07/23 10:57:41;;;;;;;2.40;1.40;;;;;;;33.61;34.22;99674.22;5077930;28;20036;-66
2023/07/23 11:00:26;;;;;;;3.70;1.40;;;;;;;33.88;34.21;99670.50;5085528;28;20127;-65
2023/07/23 11:02:53;;;;;;;3.55;1.40;;;;;;;33.89;33.96;99673.06;5081192;28;20036;-67
2023/07/23 11:05:20;;;;;;;4.55;1.30;;;;;;;33.68;32.92;99683.38;5085029;28;20047;-66
2023/07/23 11:08:31;;;;;;;2.40;1.05;;;;;;;33.22;34.66;99675.69;5083756;28;20107;-65
2023/07/23 11:11:01;;;;;;;3.60;1.40;;;;;;;33.27;35.01;99673.16;5073630;28;20033;-65
2023/07/23 11:13:34;;;;;;;4.15;1.33;;;;;;;32.85;34.52;99672.44;5078228;28;20020;-66
2023/07/23 11:16:01;;;;;;;2.40;1.25;;;;;;;32.39;35.59;99665.66;5081112;28;20076;-65
2023/07/23 11:18:30;;;;;;;2.72;1.13;;;;;;;32.17;35.63;99667.53;5073390;28;21228;-65
2023/07/23 11:20:57;;;;;;;4.22;1.30;;;;;;;32.44;35.66;99672.25;5075662;28;20105;-65
2023/07/23 11:23:25;;;;;;;3.20;1.23;;;;;;;32.05;36.08;99680.09;5077469;28;20644;-65
2023/07/23 11:25:51;;;;;;;2.67;1.23;;;;;;;31.77;35.69;99670.84;5070936;28;20029;-65
2023/07/23 11:28:18;;;;;;;2.60;1.30;;;;;;;31.69;36.09;99671.81;5071167;28;20232;-65
2023/07/23 11:30:43;;;;;;;3.50;1.30;;;;;;;31.54;36.30;99664.63;5068672;28;20028;-65